createdAt,value
2023-01-12T00:01:52.665Z,1.30
2023-01-12T00:04:19.322Z,1.23
2023-01-12T00:06:46.229Z,0.90
2023-01-12T00:09:13.067Z,1.00
2023-01-12T00:11:40.157Z,1.40
2023-01-12T00:14:08.066Z,1.13
2023-01-12T00:16:35.193Z,1.50
2023-01-12T00:19:07.200Z,1.40
2023-01-12T00:21:33.706Z,1.20
2023-01-12T00:24:00.286Z,1.00
2023-01-12T00:26:26.891Z,1.63
2023-01-12T00:28:53.882Z,1.58
2023-01-12T00:31:20.438Z,1.40
2023-01-12T00:33:46.952Z,1.55
2023-01-12T00:36:17.455Z,1.20
2023-01-12T00:38:43.975Z,1.48
2023-01-12T00:41:12.865Z,0.90
2023-01-12T00:43:39.384Z,1.40
2023-01-12T00:46:05.941Z,1.63
2023-01-12T00:48:32.505Z,2.20
2023-01-12T00:51:03.206Z,1.40
2023-01-12T00:53:30.904Z,1.25
2023-01-12T00:56:06.803Z,1.13
2023-01-12T01:01:07.526Z,1.25
2023-01-12T01:03:35.340Z,1.33
2023-01-12T01:06:06.465Z,1.38
2023-01-12T01:08:36.403Z,0.93
2023-01-12T01:11:09.076Z,1.40
2023-01-12T01:13:36.837Z,1.90
2023-01-12T01:16:04.850Z,1.40
2023-01-12T01:18:32.574Z,0.90
2023-01-12T01:20:59.183Z,1.60
2023-01-12T01:23:26.855Z,1.50
2023-01-12T01:25:53.359Z,2.08
2023-01-12T01:28:20.606Z,1.10
2023-01-12T01:30:47.680Z,1.40
2023-01-12T01:33:14.672Z,0.88
2023-01-12T01:35:41.214Z,1.73
2023-01-12T01:38:07.734Z,1.42
2023-01-12T01:40:34.216Z,1.25
2023-01-12T01:43:00.795Z,1.80
2023-01-12T01:45:27.684Z,1.38
2023-01-12T01:47:58.094Z,1.35
2023-01-12T01:50:40.792Z,1.35
2023-01-12T01:53:15.966Z,1.17
2023-01-12T01:55:54.558Z,0.98
2023-01-12T01:58:38.683Z,0.90
2023-01-12T02:01:05.980Z,1.83
2023-01-12T02:03:36.686Z,1.42
2023-01-12T02:06:06.254Z,1.15
2023-01-12T02:08:55.351Z,1.20
2023-01-12T02:11:22.086Z,1.25
2023-01-12T02:13:48.580Z,1.10
2023-01-12T02:16:20.270Z,1.25
2023-01-12T02:19:05.300Z,1.00
2023-01-12T02:22:11.843Z,1.50
2023-01-12T02:25:15.466Z,1.08
2023-01-12T02:28:01.725Z,1.73
2023-01-12T02:31:05.431Z,0.90
2023-01-12T02:33:45.268Z,1.20
2023-01-12T02:36:29.537Z,2.33
2023-01-12T02:39:09.210Z,1.38
2023-01-12T02:41:44.560Z,2.05
2023-01-12T02:44:22.976Z,1.05
2023-01-12T02:46:51.668Z,1.48
2023-01-12T02:49:22.975Z,1.48
2023-01-12T02:51:57.139Z,1.10
2023-01-12T02:54:24.834Z,1.17
2023-01-12T02:56:54.219Z,1.02
2023-01-12T02:59:25.781Z,1.20
2023-01-12T03:01:57.448Z,1.35
2023-01-12T03:04:25.737Z,1.75
2023-01-12T03:06:58.029Z,1.60
2023-01-12T03:09:32.294Z,2.08
2023-01-12T03:12:05.766Z,1.25
2023-01-12T03:14:34.631Z,1.65
2023-01-12T03:17:05.520Z,1.65
2023-01-12T03:19:33.245Z,1.67
2023-01-12T03:22:06.939Z,1.17
2023-01-12T03:24:46.764Z,1.08
2023-01-12T03:27:17.875Z,1.92
2023-01-12T03:29:58.059Z,1.38
2023-01-12T03:32:24.895Z,0.93
2023-01-12T03:34:51.879Z,2.33
2023-01-12T03:37:44.403Z,1.85
2023-01-12T03:40:35.334Z,1.42
2023-01-12T03:43:15.801Z,1.58
2023-01-12T03:45:49.809Z,1.30
2023-01-12T03:48:29.043Z,0.93
2023-01-12T03:51:05.354Z,1.30
2023-01-12T03:53:33.575Z,1.40
2023-01-12T03:56:05.632Z,0.95
2023-01-12T03:58:33.023Z,0.73
2023-01-12T04:00:59.711Z,1.13
2023-01-12T04:03:26.293Z,1.00
2023-01-12T04:05:52.854Z,0.85
2023-01-12T04:08:19.617Z,0.50
2023-01-12T04:10:46.128Z,0.95
2023-01-12T04:13:12.678Z,1.05
2023-01-12T04:15:39.175Z,0.98
2023-01-12T04:18:05.721Z,1.45
2023-01-12T04:20:32.288Z,1.20
2023-01-12T04:22:58.847Z,1.42
2023-01-12T04:25:25.333Z,1.02
2023-01-12T04:27:57.123Z,1.48
2023-01-12T04:30:23.902Z,0.60
2023-01-12T04:32:50.974Z,1.10
2023-01-12T04:35:17.712Z,1.35
2023-01-12T04:37:44.797Z,1.40
2023-01-12T04:40:13.584Z,1.20
2023-01-12T04:43:00.024Z,1.10
2023-01-12T04:45:27.783Z,1.75
2023-01-12T04:47:54.266Z,1.38
2023-01-12T04:50:20.752Z,1.10
2023-01-12T04:52:47.263Z,1.05
2023-01-12T04:55:13.755Z,1.20
2023-01-12T04:57:40.232Z,0.82
2023-01-12T05:00:07.414Z,0.88
2023-01-12T05:02:33.931Z,1.00
2023-01-12T05:05:00.452Z,1.20
2023-01-12T05:07:26.955Z,1.30
2023-01-12T05:09:53.467Z,1.23
2023-01-12T05:12:19.953Z,1.20
2023-01-12T05:14:46.451Z,1.30
2023-01-12T05:17:12.939Z,1.90
2023-01-12T05:19:39.460Z,1.23
2023-01-12T05:22:06.026Z,0.68
2023-01-12T05:24:32.522Z,0.85
2023-01-12T05:26:59.044Z,0.57
2023-01-12T05:29:25.569Z,0.70
2023-01-12T05:31:52.426Z,0.60
2023-01-12T05:34:19.424Z,0.88
2023-01-12T05:36:46.735Z,1.17
2023-01-12T05:39:13.261Z,1.27
2023-01-12T05:41:39.924Z,0.90
2023-01-12T05:44:06.532Z,0.52
2023-01-12T05:46:33.124Z,0.95
2023-01-12T05:48:59.765Z,1.48
2023-01-12T05:51:27.404Z,0.82
2023-01-12T05:53:55.020Z,1.08
2023-01-12T05:56:24.709Z,0.82
2023-01-12T05:58:52.744Z,0.98
2023-01-12T06:01:20.327Z,1.00
2023-01-12T06:03:54.741Z,0.70
2023-01-12T06:06:22.443Z,0.75
2023-01-12T06:08:51.398Z,0.82
2023-01-12T06:11:18.837Z,0.93
2023-01-12T06:13:45.339Z,0.63
2023-01-12T06:16:11.928Z,1.15
2023-01-12T06:18:39.604Z,0.60
2023-01-12T06:21:07.986Z,0.85
2023-01-12T06:23:35.848Z,0.90
2023-01-12T06:26:05.265Z,1.42
2023-01-12T06:28:32.029Z,1.23
2023-01-12T06:31:01.755Z,1.02
2023-01-12T06:33:28.786Z,0.90
2023-01-12T06:35:56.205Z,0.93
2023-01-12T06:38:24.898Z,0.88
2023-01-12T06:40:52.015Z,0.70
2023-01-12T06:43:19.127Z,1.05
2023-01-12T06:45:45.950Z,0.85
2023-01-12T06:48:12.587Z,0.57
2023-01-12T06:50:39.111Z,0.75
2023-01-12T06:53:06.471Z,1.73
2023-01-12T06:55:33.531Z,1.15
2023-01-12T06:58:04.146Z,0.60
2023-01-12T07:00:31.897Z,0.90
2023-01-12T07:02:58.794Z,1.48
2023-01-12T07:05:25.277Z,0.85
2023-01-12T07:07:57.686Z,1.42
2023-01-12T07:10:24.285Z,1.42
2023-01-12T07:12:50.822Z,1.35
2023-01-12T07:15:17.369Z,0.47
2023-01-12T07:17:43.904Z,0.77
2023-01-12T07:20:10.851Z,1.05
2023-01-12T07:22:37.358Z,0.85
2023-01-12T07:25:04.037Z,0.95
2023-01-12T07:27:30.548Z,0.73
2023-01-12T07:29:57.018Z,0.95
2023-01-12T07:32:26.148Z,1.00
2023-01-12T07:34:52.627Z,0.43
2023-01-12T07:37:19.107Z,0.70
2023-01-12T07:39:45.594Z,0.55
2023-01-12T07:42:12.239Z,0.73
2023-01-12T07:44:38.733Z,0.68
2023-01-12T07:47:05.242Z,0.80
2023-01-12T07:49:31.731Z,0.63
2023-01-12T07:51:58.274Z,0.50
2023-01-12T07:54:24.765Z,0.70
2023-01-12T07:56:51.306Z,0.80
2023-01-12T07:59:17.836Z,0.55
2023-01-12T08:01:44.548Z,0.40
2023-01-12T08:04:11.161Z,0.60
2023-01-12T08:06:37.793Z,0.77
2023-01-12T08:09:04.333Z,0.68
2023-01-12T08:11:30.938Z,0.82
2023-01-12T08:13:58.325Z,0.70
2023-01-12T08:16:30.743Z,0.60
2023-01-12T08:19:02.515Z,0.60
2023-01-12T08:21:38.703Z,0.70
2023-01-12T08:24:07.786Z,0.52
2023-01-12T08:26:39.451Z,0.30
2023-01-12T08:29:19.911Z,0.60
2023-01-12T08:31:46.864Z,0.38
2023-01-12T08:34:13.473Z,0.40
2023-01-12T08:36:43.836Z,0.45
2023-01-12T08:39:11.221Z,0.55
2023-01-12T08:41:37.757Z,0.47
2023-01-12T08:44:07.128Z,0.40
2023-01-12T08:46:39.271Z,0.77
2023-01-12T08:49:10.980Z,0.60
2023-01-12T08:51:37.948Z,0.20
2023-01-12T08:54:05.013Z,0.47
2023-01-12T08:56:31.535Z,1.00
2023-01-12T08:58:58.055Z,0.50
2023-01-12T09:01:24.698Z,0.35
2023-01-12T09:03:51.330Z,0.60
2023-01-12T09:06:23.916Z,0.80
2023-01-12T09:09:02.151Z,0.70
2023-01-12T09:11:30.091Z,0.60
2023-01-12T09:13:57.258Z,0.50
2023-01-12T09:16:24.270Z,0.50
2023-01-12T09:18:50.823Z,0.60
2023-01-12T09:21:20.506Z,0.50
2023-01-12T09:23:47.816Z,0.47
2023-01-12T09:26:16.821Z,0.60
2023-01-12T09:28:43.412Z,0.55
2023-01-12T09:31:14.752Z,0.40
2023-01-12T09:33:41.949Z,0.75
2023-01-12T09:36:11.622Z,0.68
2023-01-12T09:38:39.827Z,0.50
2023-01-12T09:41:22.631Z,0.40
2023-01-12T09:43:49.274Z,0.60
2023-01-12T09:46:38.089Z,0.40
2023-01-12T09:49:06.047Z,0.63
2023-01-12T09:51:37.597Z,0.30
2023-01-12T09:54:06.148Z,0.50
2023-01-12T09:56:40.470Z,0.60
2023-01-12T09:59:32.778Z,0.90
2023-01-12T10:01:59.511Z,0.60
2023-01-12T10:04:26.395Z,0.60
2023-01-12T10:06:53.082Z,0.60
2023-01-12T10:09:21.386Z,0.60
2023-01-12T10:12:09.626Z,0.40
2023-01-12T10:15:04.837Z,0.30
2023-01-12T10:18:01.783Z,0.65
2023-01-12T10:20:39.076Z,0.50
2023-01-12T10:23:08.677Z,0.63
2023-01-12T10:25:56.805Z,0.35
2023-01-12T10:28:31.863Z,0.47
2023-01-12T10:30:58.850Z,0.52
2023-01-12T10:33:28.248Z,0.30
2023-01-12T10:36:18.422Z,0.43
2023-01-12T10:39:00.523Z,0.28
2023-01-12T10:41:28.842Z,0.60
2023-01-12T10:43:58.356Z,0.60
2023-01-12T10:46:32.198Z,0.40
2023-01-12T10:49:21.499Z,0.47
2023-01-12T10:51:56.481Z,0.82
2023-01-12T10:54:27.205Z,0.60
2023-01-12T10:57:04.672Z,0.68
2023-01-12T10:59:35.103Z,0.63
2023-01-12T11:02:07.841Z,0.68
2023-01-12T11:04:44.301Z,0.60
2023-01-12T11:07:48.214Z,0.73
2023-01-12T11:10:41.331Z,0.70
2023-01-12T11:13:29.121Z,0.70
2023-01-12T11:16:09.223Z,0.95
2023-01-12T11:19:05.913Z,0.45
2023-01-12T11:21:36.648Z,0.50
2023-01-12T11:24:10.277Z,0.68
2023-01-12T11:26:52.917Z,0.50
2023-01-12T11:29:33.855Z,0.30
2023-01-12T11:32:12.150Z,0.75
2023-01-12T11:34:44.238Z,0.70
2023-01-12T11:37:14.468Z,0.60
2023-01-12T11:39:43.626Z,0.47
2023-01-12T11:42:20.338Z,0.38
2023-01-12T11:45:13.221Z,0.65
2023-01-12T11:48:01.681Z,0.70
2023-01-12T11:50:32.335Z,0.50
2023-01-12T11:52:59.130Z,0.50
2023-01-12T11:55:37.607Z,0.50
2023-01-12T11:58:30.224Z,0.20
2023-01-12T12:01:05.408Z,0.40
2023-01-12T12:04:01.515Z,0.40
2023-01-12T12:06:36.334Z,0.35
2023-01-12T12:09:18.272Z,0.40
2023-01-12T12:11:58.894Z,0.50
2023-01-12T12:15:02.782Z,0.20
2023-01-12T12:17:47.106Z,0.60
2023-01-12T12:20:19.154Z,0.40
2023-01-12T12:23:16.230Z,0.25
2023-01-12T12:26:07.345Z,0.38
2023-01-12T12:29:04.243Z,0.30
2023-01-12T12:31:33.922Z,0.45
2023-01-12T12:34:41.498Z,0.40
2023-01-12T12:37:38.989Z,0.30
2023-01-12T12:40:32.455Z,0.47
2023-01-12T12:43:13.595Z,0.30
2023-01-12T12:46:09.186Z,0.55
2023-01-12T12:48:47.748Z,0.55
2023-01-12T12:51:15.633Z,0.50
2023-01-12T12:53:45.678Z,0.55
2023-01-12T12:56:15.449Z,0.52
2023-01-12T12:58:43.542Z,0.70
2023-01-12T13:01:25.387Z,0.40
2023-01-12T13:04:03.153Z,0.50
2023-01-12T13:06:38.032Z,0.30
2023-01-12T13:09:24.549Z,0.15
2023-01-12T13:11:57.345Z,0.38
2023-01-12T13:14:28.063Z,0.60
2023-01-12T13:17:03.503Z,0.50
2023-01-12T13:19:41.617Z,0.40
2023-01-12T13:22:32.231Z,0.17
2023-01-12T13:25:28.035Z,0.32
2023-01-12T13:27:54.500Z,0.30
2023-01-12T13:30:30.552Z,0.30
2023-01-12T13:33:15.144Z,0.50
2023-01-12T13:35:41.639Z,0.30
2023-01-12T13:38:34.476Z,0.55
2023-01-12T13:41:26.637Z,0.85
2023-01-12T13:43:57.955Z,0.40
2023-01-12T13:46:29.434Z,0.40
2023-01-12T13:48:56.540Z,0.50
2023-01-12T13:51:33.677Z,0.55
2023-01-12T13:54:14.476Z,1.00
2023-01-12T13:56:41.989Z,0.30
2023-01-12T13:59:17.467Z,0.47
2023-01-12T14:01:47.213Z,0.52
2023-01-12T14:04:13.737Z,0.30
2023-01-12T14:06:46.552Z,0.30
2023-01-12T14:09:25.475Z,0.38
2023-01-12T14:12:29.343Z,0.38
2023-01-12T14:15:28.617Z,0.60
2023-01-12T14:18:14.500Z,0.40
2023-01-12T14:20:49.745Z,0.45
2023-01-12T14:23:28.852Z,0.28
2023-01-12T14:26:10.850Z,0.30
2023-01-12T14:28:39.375Z,0.50
2023-01-12T14:31:09.138Z,0.30
2023-01-12T14:33:38.027Z,0.30
2023-01-12T14:36:27.067Z,0.30
2023-01-12T14:38:54.500Z,0.20
2023-01-12T14:41:24.899Z,0.50
2023-01-12T14:43:51.834Z,0.40
2023-01-12T14:46:27.964Z,0.40
2023-01-12T14:48:57.290Z,0.60
2023-01-12T14:51:34.826Z,0.52
2023-01-12T14:54:25.530Z,0.45
2023-01-12T14:56:56.869Z,0.30
2023-01-12T14:59:29.223Z,0.47
2023-01-12T15:02:31.365Z,0.57
2023-01-12T15:05:05.310Z,0.50
2023-01-12T15:07:38.452Z,0.60
2023-01-12T15:10:13.852Z,0.30
2023-01-12T15:12:43.238Z,0.30
2023-01-12T15:15:21.715Z,0.50
2023-01-12T15:17:50.360Z,0.30
2023-01-12T15:20:17.122Z,0.30
2023-01-12T15:22:43.587Z,0.20
2023-01-12T15:25:17.733Z,0.55
2023-01-12T15:27:44.275Z,0.40
2023-01-12T15:30:11.469Z,0.50
2023-01-12T15:32:47.208Z,0.50
2023-01-12T15:35:17.692Z,0.63
2023-01-12T15:37:44.213Z,0.38
2023-01-12T15:40:13.695Z,0.50
2023-01-12T15:42:40.620Z,0.38
2023-01-12T15:45:34.341Z,0.47
2023-01-12T15:48:02.191Z,0.50
2023-01-12T15:50:29.078Z,0.43
2023-01-12T15:52:56.102Z,0.50
2023-01-12T15:55:23.383Z,0.45
2023-01-12T15:57:50.231Z,0.22
2023-01-12T16:00:19.385Z,0.50
2023-01-12T16:02:46.662Z,0.40
2023-01-12T16:05:13.742Z,0.43
2023-01-12T16:07:40.324Z,0.63
2023-01-12T16:10:07.843Z,2.20
2023-01-12T16:12:34.442Z,0.52
2023-01-12T16:15:01.007Z,1.10
2023-01-12T16:17:27.506Z,1.08
2023-01-12T16:19:53.998Z,0.50
2023-01-12T16:22:22.801Z,0.55
2023-01-12T16:24:50.567Z,0.40
2023-01-12T16:27:18.578Z,0.90
2023-01-12T16:29:45.223Z,0.70
2023-01-12T16:32:12.569Z,1.15
2023-01-12T16:34:39.283Z,1.83
2023-01-12T16:37:10.619Z,2.00
2023-01-12T16:39:37.177Z,2.50
2023-01-12T16:42:03.787Z,1.35
2023-01-12T16:44:32.663Z,1.42
2023-01-12T16:46:59.390Z,1.73
2023-01-12T16:49:26.090Z,1.10
2023-01-12T16:51:52.617Z,1.75
2023-01-12T16:54:19.092Z,1.05
2023-01-12T16:56:45.676Z,1.15
2023-01-12T16:59:12.210Z,0.70
2023-01-12T17:01:39.107Z,1.02
2023-01-12T17:04:05.765Z,1.27
2023-01-12T17:06:32.404Z,0.80
2023-01-12T17:09:02.381Z,0.70
2023-01-12T17:11:28.970Z,0.80
2023-01-12T17:13:56.459Z,1.50
2023-01-12T17:16:25.670Z,0.73
2023-01-12T17:18:52.554Z,0.70
2023-01-12T17:21:20.085Z,0.77
2023-01-12T17:23:47.300Z,0.52
2023-01-12T17:26:16.887Z,0.60
2023-01-12T17:28:44.714Z,0.50
2023-01-12T17:31:14.990Z,0.65
2023-01-12T17:33:42.055Z,0.55
2023-01-12T17:36:10.216Z,0.75
2023-01-12T17:38:37.710Z,0.70
2023-01-12T17:41:09.441Z,0.50
2023-01-12T17:43:36.065Z,0.70
2023-01-12T17:46:02.717Z,0.98
2023-01-12T17:48:29.222Z,0.80
2023-01-12T17:50:55.733Z,0.40
2023-01-12T17:53:22.259Z,0.70
2023-01-12T17:55:50.390Z,0.52
2023-01-12T17:58:17.587Z,0.57
2023-01-12T18:00:44.192Z,0.80
2023-01-12T18:03:10.858Z,0.40
2023-01-12T18:05:37.464Z,0.50
2023-01-12T18:08:03.993Z,0.70
2023-01-12T18:10:30.516Z,0.80
2023-01-12T18:12:57.048Z,0.57
2023-01-12T18:15:23.579Z,0.80
2023-01-12T18:17:50.191Z,0.52
2023-01-12T18:20:16.795Z,0.55
2023-01-12T18:22:43.427Z,0.80
2023-01-12T18:25:09.912Z,0.50
2023-01-12T18:27:36.499Z,0.80
2023-01-12T18:30:03.222Z,0.43
2023-01-12T18:32:29.720Z,0.50
2023-01-12T18:34:56.231Z,0.45
2023-01-12T18:37:22.862Z,0.40
2023-01-12T18:39:49.791Z,0.50
2023-01-12T18:42:16.332Z,0.68
2023-01-12T18:44:42.916Z,0.70
2023-01-12T18:47:16.600Z,0.60
2023-01-12T18:49:43.350Z,0.47
2023-01-12T18:52:12.218Z,0.45
2023-01-12T18:54:38.747Z,0.70
2023-01-12T18:57:05.308Z,0.70
2023-01-12T18:59:32.009Z,1.10
2023-01-12T19:02:04.698Z,3.70
2023-01-12T19:04:31.318Z,2.80
2023-01-12T19:06:57.898Z,1.40
2023-01-12T19:09:24.519Z,1.25
2023-01-12T19:11:51.152Z,1.45
2023-01-12T19:14:17.714Z,1.20
2023-01-12T19:16:44.284Z,1.48
2023-01-12T19:19:11.291Z,1.42
2023-01-12T19:21:37.931Z,0.63
2023-01-12T19:24:04.621Z,0.50
2023-01-12T19:26:44.758Z,0.70
2023-01-12T19:29:11.263Z,0.70
2023-01-12T19:31:40.414Z,0.70
2023-01-12T19:34:07.113Z,0.85
2023-01-12T19:36:36.663Z,0.50
2023-01-12T19:39:03.377Z,0.43
2023-01-12T19:41:29.958Z,0.55
2023-01-12T19:43:58.779Z,0.70
2023-01-12T19:46:25.395Z,0.40
2023-01-12T19:48:51.920Z,0.50
2023-01-12T19:51:18.526Z,1.05
2023-01-12T19:53:45.357Z,0.57
2023-01-12T19:56:12.544Z,0.43
2023-01-12T19:58:39.639Z,0.57
2023-01-12T20:01:06.656Z,0.45
2023-01-12T20:03:33.264Z,0.50
2023-01-12T20:06:05.866Z,0.50
2023-01-12T20:08:32.373Z,0.50
2023-01-12T20:10:59.928Z,0.38
2023-01-12T20:13:27.275Z,0.40
2023-01-12T20:15:54.325Z,0.50
2023-01-12T20:18:21.001Z,0.88
2023-01-12T20:20:47.634Z,0.50
2023-01-12T20:23:14.868Z,0.50
2023-01-12T20:25:42.308Z,0.60
2023-01-12T20:28:10.241Z,1.15
2023-01-12T20:30:38.300Z,1.40
2023-01-12T20:33:06.587Z,2.17
2023-01-12T20:35:33.329Z,1.52
2023-01-12T20:38:01.746Z,1.10
2023-01-12T20:40:28.389Z,0.82
2023-01-12T20:42:55.000Z,0.65
2023-01-12T20:45:21.472Z,1.27
2023-01-12T20:47:48.023Z,0.75
2023-01-12T20:50:14.645Z,0.70
2023-01-12T20:52:41.407Z,1.00
2023-01-12T20:55:08.452Z,1.10
2023-01-12T20:57:36.618Z,1.30
2023-01-12T21:00:04.112Z,0.77
2023-01-12T21:02:30.614Z,0.57
2023-01-12T21:04:57.073Z,0.45
2023-01-12T21:07:23.626Z,0.80
2023-01-12T21:09:50.359Z,0.43
2023-01-12T21:12:16.937Z,0.55
2023-01-12T21:14:43.409Z,0.40
2023-01-12T21:17:09.936Z,0.50
2023-01-12T21:19:36.623Z,0.25
2023-01-12T21:22:03.648Z,0.63
2023-01-12T21:24:30.226Z,0.68
2023-01-12T21:26:56.776Z,0.68
2023-01-12T21:29:23.741Z,0.70
2023-01-12T21:31:50.300Z,1.73
2023-01-12T21:34:16.875Z,0.50
2023-01-12T21:36:43.366Z,0.70
2023-01-12T21:39:09.888Z,0.50
2023-01-12T21:41:36.440Z,0.55
2023-01-12T21:44:03.126Z,0.47
2023-01-12T21:46:29.631Z,0.38
2023-01-12T21:48:56.099Z,0.38
2023-01-12T21:51:22.625Z,0.50
2023-01-12T21:53:49.110Z,0.52
2023-01-12T21:56:15.626Z,0.40
2023-01-12T21:58:42.269Z,0.30
2023-01-12T22:01:11.384Z,0.60
2023-01-12T22:03:38.661Z,1.98
2023-01-12T22:06:07.872Z,3.13
2023-01-12T22:08:39.924Z,0.90
2023-01-12T22:11:08.103Z,1.27
2023-01-12T22:13:35.247Z,0.90
2023-01-12T22:16:07.071Z,1.20
2023-01-12T22:18:33.549Z,1.60
2023-01-12T22:21:05.996Z,0.85
2023-01-12T22:23:33.237Z,2.58
2023-01-12T22:26:04.562Z,1.40
2023-01-12T22:28:35.733Z,2.83
2023-01-12T22:31:11.718Z,1.75
2023-01-12T22:33:38.735Z,1.08
2023-01-12T22:36:06.915Z,1.35
2023-01-12T22:38:33.942Z,1.40
2023-01-12T22:41:08.056Z,3.33
2023-01-12T22:43:37.117Z,5.10
2023-01-12T22:46:05.092Z,1.15
2023-01-12T22:48:31.654Z,2.63
2023-01-12T22:51:00.341Z,2.38
2023-01-12T22:53:26.884Z,2.00
2023-01-12T22:55:53.366Z,1.52
2023-01-12T22:58:19.874Z,1.75
2023-01-12T23:00:46.308Z,1.35
2023-01-12T23:03:13.752Z,2.10
2023-01-12T23:05:46.583Z,0.63
2023-01-12T23:08:14.293Z,1.15
2023-01-12T23:10:41.660Z,0.80
2023-01-12T23:13:08.339Z,1.02
2023-01-12T23:15:47.330Z,1.70
2023-01-12T23:18:19.909Z,1.10
2023-01-12T23:20:47.324Z,1.00
2023-01-12T23:23:14.195Z,0.88
2023-01-12T23:25:40.839Z,1.15
2023-01-12T23:28:07.790Z,1.80
2023-01-12T23:30:34.316Z,1.15
2023-01-12T23:33:02.426Z,1.10
2023-01-12T23:35:29.350Z,1.15
2023-01-12T23:37:55.838Z,1.42
2023-01-12T23:40:22.306Z,0.77
2023-01-12T23:42:48.884Z,1.20
2023-01-12T23:45:15.470Z,0.70
2023-01-12T23:47:42.049Z,1.20
2023-01-12T23:50:10.985Z,1.38
2023-01-12T23:52:38.110Z,0.50
2023-01-12T23:55:05.890Z,0.60
2023-01-12T23:57:32.639Z,0.40
